sensor_id;sensor_type;location;lat;lon;timestamp;noise_LAeq;noise_LA_min;noise_LA_max;noise_LA01;noise_LA95
76100;Laerm;64828;49.956;8.636;2023-03-01T00:00:06;36.48;35.07;37.59;;
76100;Laerm;64828;49.956;8.636;2023-03-01T00:00:22;36.57;35.04;37.90;;
76100;Laerm;64828;49.956;8.636;2023-03-01T00:00:38;36.66;35.05;37.84;;
76100;Laerm;64828;49.956;8.636;2023-03-01T00:00:53;36.59;34.99;39.34;;
76100;Laerm;64828;49.956;8.636;2023-03-01T00:01:29;36.56;34.66;40.38;;
76100;Laerm;64828;49.956;8.636;2023-03-01T00:01:45;36.53;34.54;37.87;;
76100;Laerm;64828;49.956;8.636;2023-03-01T00:02:01;36.53;35.20;37.72;;
76100;Laerm;64828;49.956;8.636;2023-03-01T00:02:17;36.54;35.24;37.76;;
76100;Laerm;64828;49.956;8.636;2023-03-01T00:02:32;36.58;34.22;42.45;;
76100;Laerm;64828;49.956;8.636;2023-03-01T00:02:48;36.65;35.35;38.59;;
76100;Laerm;64828;49.956;8.636;2023-03-01T00:03:04;36.66;35.30;37.78;;
76100;Laerm;64828;49.956;8.636;2023-03-01T00:03:19;36.72;34.84;37.96;;
76100;Laerm;64828;49.956;8.636;2023-03-01T00:03:35;36.70;35.31;40.04;;
76100;Laerm;64828;49.956;8.636;2023-03-01T00:03:53;36.70;34.88;38.10;;
76100;Laerm;64828;49.956;8.636;2023-03-01T00:04:08;36.67;35.10;37.80;;
76100;Laerm;64828;49.956;8.636;2023-03-01T00:04:24;36.58;34.96;37.87;;
76100;Laerm;64828;49.956;8.636;2023-03-01T00:04:40;36.70;34.84;39.54;;
76100;Laerm;64828;49.956;8.636;2023-03-01T00:04:55;36.54;35.06;37.86;;
76100;Laerm;64828;49.956;8.636;2023-03-01T00:05:11;36.84;35.55;38.16;;
76100;Laerm;64828;49.956;8.636;2023-03-01T00:05:27;36.87;35.34;38.41;;
76100;Laerm;64828;49.956;8.636;2023-03-01T00:05:45;36.75;35.27;37.96;;
76100;Laerm;64828;49.956;8.636;2023-03-01T00:06:02;36.61;34.98;38.11;;
76100;Laerm;64828;49.956;8.636;2023-03-01T00:06:19;36.56;35.02;37.84;;
76100;Laerm;64828;49.956;8.636;2023-03-01T00:06:35;36.56;35.18;37.70;;
76100;Laerm;64828;49.956;8.636;2023-03-01T00:06:51;36.58;35.13;37.62;;
76100;Laerm;64828;49.956;8.636;2023-03-01T00:07:06;36.65;34.72;37.97;;
76100;Laerm;64828;49.956;8.636;2023-03-01T00:07:22;36.51;34.37;40.66;;
76100;Laerm;64828;49.956;8.636;2023-03-01T00:07:37;36.40;34.40;37.64;;
76100;Laerm;64828;49.956;8.636;2023-03-01T00:07:53;36.56;34.49;39.20;;
76100;Laerm;64828;49.956;8.636;2023-03-01T00:08:09;36.58;34.97;38.09;;
76100;Laerm;64828;49.956;8.636;2023-03-01T00:08:26;36.97;35.28;38.42;;
76100;Laerm;64828;49.956;8.636;2023-03-01T00:08:42;36.94;35.37;38.45;;
76100;Laerm;64828;49.956;8.636;2023-03-01T00:08:57;37.08;35.60;38.78;;
76100;Laerm;64828;49.956;8.636;2023-03-01T00:09:14;37.11;35.75;38.68;;
76100;Laerm;64828;49.956;8.636;2023-03-01T00:09:30;36.84;34.93;38.10;;
76100;Laerm;64828;49.956;8.636;2023-03-01T00:09:46;36.77;34.87;38.00;;
76100;Laerm;64828;49.956;8.636;2023-03-01T00:10:01;36.74;34.78;38.54;;
76100;Laerm;64828;49.956;8.636;2023-03-01T00:10:17;36.69;34.79;38.39;;
76100;Laerm;64828;49.956;8.636;2023-03-01T00:10:33;36.83;35.16;38.65;;
76100;Laerm;64828;49.956;8.636;2023-03-01T00:10:48;37.06;35.74;38.45;;
76100;Laerm;64828;49.956;8.636;2023-03-01T00:11:14;37.09;34.86;38.70;;
76100;Laerm;64828;49.956;8.636;2023-03-01T00:11:32;38.48;35.55;41.48;;
76100;Laerm;64828;49.956;8.636;2023-03-01T00:11:48;39.66;37.52;41.73;;
76100;Laerm;64828;49.956;8.636;2023-03-01T00:12:05;38.35;36.70;40.28;;
76100;Laerm;64828;49.956;8.636;2023-03-01T00:12:21;37.30;35.42;39.63;;
76100;Laerm;64828;49.956;8.636;2023-03-01T00:12:37;36.51;34.47;39.93;;
76100;Laerm;64828;49.956;8.636;2023-03-01T00:12:52;36.46;35.07;37.72;;
76100;Laerm;64828;49.956;8.636;2023-03-01T00:13:08;36.53;34.81;37.79;;
76100;Laerm;64828;49.956;8.636;2023-03-01T00:13:24;36.55;35.22;39.30;;
76100;Laerm;64828;49.956;8.636;2023-03-01T00:13:41;36.61;35.13;38.38;;
76100;Laerm;64828;49.956;8.636;2023-03-01T00:13:59;36.66;34.89;38.15;;
76100;Laerm;64828;49.956;8.636;2023-03-01T00:14:16;36.67;34.77;38.09;;
76100;Laerm;64828;49.956;8.636;2023-03-01T00:14:32;37.00;35.20;40.49;;
76100;Laerm;64828;49.956;8.636;2023-03-01T00:14:49;37.76;35.88;41.20;;
76100;Laerm;64828;49.956;8.636;2023-03-01T00:15:05;39.14;36.36;42.95;;
76100;Laerm;64828;49.956;8.636;2023-03-01T00:15:20;40.59;37.60;44.86;;
76100;Laerm;64828;49.956;8.636;2023-03-01T00:15:40;41.10;37.51;44.99;;
76100;Laerm;64828;49.956;8.636;2023-03-01T00:15:56;41.05;37.23;45.40;;
76100;Laerm;64828;49.956;8.636;2023-03-01T00:16:29;39.96;37.34;45.63;;
76100;Laerm;64828;49.956;8.636;2023-03-01T00:16:46;40.05;37.55;42.32;;
76100;Laerm;64828;49.956;8.636;2023-03-01T00:17:01;40.24;37.97;41.99;;
76100;Laerm;64828;49.956;8.636;2023-03-01T00:17:17;40.95;38.48;44.04;;
76100;Laerm;64828;49.956;8.636;2023-03-01T00:17:32;42.93;39.32;46.53;;
76100;Laerm;64828;49.956;8.636;2023-03-01T00:17:48;43.39;39.80;48.26;;
76100;Laerm;64828;49.956;8.636;2023-03-01T00:18:04;40.71;37.53;45.41;;
76100;Laerm;64828;49.956;8.636;2023-03-01T00:18:19;40.59;37.64;43.94;;
76100;Laerm;64828;49.956;8.636;2023-03-01T00:18:35;38.38;35.81;41.70;;
76100;Laerm;64828;49.956;8.636;2023-03-01T00:18:51;38.10;35.62;45.45;;
76100;Laerm;64828;49.956;8.636;2023-03-01T00:19:12;45.55;36.52;53.72;;
76100;Laerm;64828;49.956;8.636;2023-03-01T00:19:28;48.94;42.01;54.19;;
76100;Laerm;64828;49.956;8.636;2023-03-01T00:19:43;45.78;39.28;50.79;;
76100;Laerm;64828;49.956;8.636;2023-03-01T00:19:59;43.80;37.74;48.80;;
76100;Laerm;64828;49.956;8.636;2023-03-01T00:20:14;41.12;37.04;46.62;;
76100;Laerm;64828;49.956;8.636;2023-03-01T00:20:30;38.75;35.67;42.95;;
76100;Laerm;64828;49.956;8.636;2023-03-01T00:20:54;37.33;35.27;40.84;;
76100;Laerm;64828;49.956;8.636;2023-03-01T00:21:11;36.57;34.58;38.97;;
76100;Laerm;64828;49.956;8.636;2023-03-01T00:21:28;36.47;35.07;37.51;;
76100;Laerm;64828;49.956;8.636;2023-03-01T00:21:43;36.71;35.36;38.72;;
76100;Laerm;64828;49.956;8.636;2023-03-01T00:21:59;36.72;34.95;38.56;;
76100;Laerm;64828;49.956;8.636;2023-03-01T00:22:15;36.69;34.98;38.13;;
76100;Laerm;64828;49.956;8.636;2023-03-01T00:22:30;36.66;35.27;38.48;;
76100;Laerm;64828;49.956;8.636;2023-03-01T00:22:46;37.18;35.29;41.42;;
76100;Laerm;64828;49.956;8.636;2023-03-01T00:23:01;37.09;35.53;38.82;;
76100;Laerm;64828;49.956;8.636;2023-03-01T00:23:17;36.84;34.73;39.11;;
76100;Laerm;64828;49.956;8.636;2023-03-01T00:23:35;36.74;35.36;37.88;;
76100;Laerm;64828;49.956;8.636;2023-03-01T00:23:51;36.96;35.53;38.34;;
76100;Laerm;64828;49.956;8.636;2023-03-01T00:24:07;37.41;35.33;39.13;;
76100;Laerm;64828;49.956;8.636;2023-03-01T00:24:23;37.24;35.58;38.80;;
76100;Laerm;64828;49.956;8.636;2023-03-01T00:24:39;37.68;35.48;39.43;;
76100;Laerm;64828;49.956;8.636;2023-03-01T00:24:54;37.74;35.67;39.88;;
76100;Laerm;64828;49.956;8.636;2023-03-01T00:25:10;37.52;35.83;39.27;;
76100;Laerm;64828;49.956;8.636;2023-03-01T00:25:26;36.90;34.42;37.96;;
76100;Laerm;64828;49.956;8.636;2023-03-01T00:25:42;36.92;35.30;39.73;;
76100;Laerm;64828;49.956;8.636;2023-03-01T00:25:58;37.17;35.68;38.57;;
76100;Laerm;64828;49.956;8.636;2023-03-01T00:26:15;37.15;35.37;38.62;;
76100;Laerm;64828;49.956;8.636;2023-03-01T00:26:31;37.12;35.20;38.46;;
76100;Laerm;64828;49.956;8.636;2023-03-01T00:26:47;37.04;35.37;39.13;;
76100;Laerm;64828;49.956;8.636;2023-03-01T00:27:03;37.26;35.71;38.98;;
76100;Laerm;64828;49.956;8.636;2023-03-01T00:27:18;37.25;35.72;40.32;;
76100;Laerm;64828;49.956;8.636;2023-03-01T00:27:34;37.12;35.49;38.59;;
76100;Laerm;64828;49.956;8.636;2023-03-01T00:27:49;37.29;35.79;38.90;;
76100;Laerm;64828;49.956;8.636;2023-03-01T00:28:05;37.23;35.96;38.51;;
76100;Laerm;64828;49.956;8.636;2023-03-01T00:28:21;37.08;35.24;38.57;;
76100;Laerm;64828;49.956;8.636;2023-03-01T00:28:37;37.08;35.48;39.29;;
76100;Laerm;64828;49.956;8.636;2023-03-01T00:28:54;36.81;35.38;38.07;;
76100;Laerm;64828;49.956;8.636;2023-03-01T00:29:10;37.06;35.72;38.46;;
76100;Laerm;64828;49.956;8.636;2023-03-01T00:29:26;37.24;35.84;38.63;;
76100;Laerm;64828;49.956;8.636;2023-03-01T00:29:42;37.64;35.58;39.85;;
76100;Laerm;64828;49.956;8.636;2023-03-01T00:29:57;37.38;35.84;38.88;;
76100;Laerm;64828;49.956;8.636;2023-03-01T00:30:13;37.13;35.38;38.74;;
76100;Laerm;64828;49.956;8.636;2023-03-01T00:30:28;37.09;35.51;38.50;;
76100;Laerm;64828;49.956;8.636;2023-03-01T00:30:44;37.27;35.74;38.64;;
76100;Laerm;64828;49.956;8.636;2023-03-01T00:31:19;40.12;36.00;44.29;;
76100;Laerm;64828;49.956;8.636;2023-03-01T00:31:35;42.84;38.72;48.18;;
76100;Laerm;64828;49.956;8.636;2023-03-01T00:31:51;45.19;40.49;49.75;;
76100;Laerm;64828;49.956;8.636;2023-03-01T00:32:07;42.10;39.67;45.49;;
76100;Laerm;64828;49.956;8.636;2023-03-01T00:32:22;39.63;36.76;42.51;;
76100;Laerm;64828;49.956;8.636;2023-03-01T00:32:38;38.53;35.50;40.60;;
76100;Laerm;64828;49.956;8.636;2023-03-01T00:32:54;39.03;36.32;41.44;;
76100;Laerm;64828;49.956;8.636;2023-03-01T00:33:09;39.43;37.53;41.18;;
76100;Laerm;64828;49.956;8.636;2023-03-01T00:33:25;38.33;36.17;40.15;;
76100;Laerm;64828;49.956;8.636;2023-03-01T00:33:42;37.15;35.57;38.90;;
76100;Laerm;64828;49.956;8.636;2023-03-01T00:34:02;36.97;34.90;38.28;;
76100;Laerm;64828;49.956;8.636;2023-03-01T00:34:18;37.04;35.45;38.63;;
76100;Laerm;64828;49.956;8.636;2023-03-01T00:34:33;36.78;35.45;38.17;;
76100;Laerm;64828;49.956;8.636;2023-03-01T00:34:49;36.71;34.55;37.87;;
76100;Laerm;64828;49.956;8.636;2023-03-01T00:35:09;36.74;35.25;38.13;;
76100;Laerm;64828;49.956;8.636;2023-03-01T00:35:25;36.78;35.43;38.42;;
76100;Laerm;64828;49.956;8.636;2023-03-01T00:35:40;36.73;35.25;38.16;;
76100;Laerm;64828;49.956;8.636;2023-03-01T00:35:58;36.66;35.25;38.12;;
76100;Laerm;64828;49.956;8.636;2023-03-01T00:36:15;36.68;35.26;38.07;;
76100;Laerm;64828;49.956;8.636;2023-03-01T00:36:35;36.89;35.13;38.47;;
76100;Laerm;64828;49.956;8.636;2023-03-01T00:36:51;37.46;35.30;39.61;;
76100;Laerm;64828;49.956;8.636;2023-03-01T00:37:06;38.02;35.93;39.88;;
76100;Laerm;64828;49.956;8.636;2023-03-01T00:37:23;38.03;36.28;40.47;;
76100;Laerm;64828;49.956;8.636;2023-03-01T00:37:38;38.16;36.17;40.33;;
76100;Laerm;64828;49.956;8.636;2023-03-01T00:37:57;37.93;35.67;44.85;;
76100;Laerm;64828;49.956;8.636;2023-03-01T00:38:13;37.08;35.25;38.68;;
76100;Laerm;64828;49.956;8.636;2023-03-01T00:38:29;37.30;35.40;38.73;;
76100;Laerm;64828;49.956;8.636;2023-03-01T00:38:45;38.40;36.35;41.05;;
76100;Laerm;64828;49.956;8.636;2023-03-01T00:39:03;37.69;35.46;39.74;;
76100;Laerm;64828;49.956;8.636;2023-03-01T00:39:19;38.08;35.97;40.04;;
76100;Laerm;64828;49.956;8.636;2023-03-01T00:39:35;37.37;35.17;39.16;;
76100;Laerm;64828;49.956;8.636;2023-03-01T00:39:50;37.24;35.75;38.75;;
76100;Laerm;64828;49.956;8.636;2023-03-01T00:40:07;36.79;35.20;38.04;;
76100;Laerm;64828;49.956;8.636;2023-03-01T00:40:35;36.82;35.01;38.27;;
76100;Laerm;64828;49.956;8.636;2023-03-01T00:40:51;37.16;35.40;38.81;;
76100;Laerm;64828;49.956;8.636;2023-03-01T00:41:09;37.46;35.48;39.65;;
76100;Laerm;64828;49.956;8.636;2023-03-01T00:41:26;37.42;35.79;39.01;;
76100;Laerm;64828;49.956;8.636;2023-03-01T00:41:42;37.31;35.44;44.08;;
76100;Laerm;64828;49.956;8.636;2023-03-01T00:41:58;36.95;35.23;38.32;;
76100;Laerm;64828;49.956;8.636;2023-03-01T00:42:14;36.74;34.27;41.29;;
76100;Laerm;64828;49.956;8.636;2023-03-01T00:42:29;36.66;34.67;38.11;;
76100;Laerm;64828;49.956;8.636;2023-03-01T00:42:45;36.86;35.17;38.33;;
76100;Laerm;64828;49.956;8.636;2023-03-01T00:43:01;36.88;34.80;38.54;;
76100;Laerm;64828;49.956;8.636;2023-03-01T00:43:16;37.03;35.68;38.49;;
76100;Laerm;64828;49.956;8.636;2023-03-01T00:43:32;37.00;35.19;38.38;;
76100;Laerm;64828;49.956;8.636;2023-03-01T00:43:52;37.03;35.34;38.53;;
76100;Laerm;64828;49.956;8.636;2023-03-01T00:44:09;36.58;34.73;37.97;;
76100;Laerm;64828;49.956;8.636;2023-03-01T00:44:25;36.56;34.23;38.11;;
76100;Laerm;64828;49.956;8.636;2023-03-01T00:44:40;36.93;34.96;39.53;;
76100;Laerm;64828;49.956;8.636;2023-03-01T00:44:56;37.29;35.28;40.25;;
76100;Laerm;64828;49.956;8.636;2023-03-01T00:45:11;40.64;38.33;42.82;;
76100;Laerm;64828;49.956;8.636;2023-03-01T00:45:28;40.92;38.41;44.03;;
76100;Laerm;64828;49.956;8.636;2023-03-01T00:45:46;42.98;39.89;46.71;;
76100;Laerm;64828;49.956;8.636;2023-03-01T00:46:05;42.61;39.26;45.76;;
76100;Laerm;64828;49.956;8.636;2023-03-01T00:46:25;39.66;36.93;42.72;;
76100;Laerm;64828;49.956;8.636;2023-03-01T00:46:41;40.26;37.60;43.02;;
76100;Laerm;64828;49.956;8.636;2023-03-01T00:46:57;39.43;36.61;41.66;;
76100;Laerm;64828;49.956;8.636;2023-03-01T00:47:13;37.98;36.39;39.97;;
76100;Laerm;64828;49.956;8.636;2023-03-01T00:47:29;37.64;35.95;40.12;;
76100;Laerm;64828;49.956;8.636;2023-03-01T00:47:45;37.10;35.54;38.90;;
76100;Laerm;64828;49.956;8.636;2023-03-01T00:48:00;36.58;34.70;38.12;;
76100;Laerm;64828;49.956;8.636;2023-03-01T00:48:16;36.64;34.91;37.88;;
76100;Laerm;64828;49.956;8.636;2023-03-01T00:48:33;36.50;35.24;37.89;;
76100;Laerm;64828;49.956;8.636;2023-03-01T00:48:49;36.34;34.27;37.80;;
76100;Laerm;64828;49.956;8.636;2023-03-01T00:49:04;36.52;35.10;38.23;;
76100;Laerm;64828;49.956;8.636;2023-03-01T00:49:20;36.36;34.30;37.90;;
76100;Laerm;64828;49.956;8.636;2023-03-01T00:49:35;36.22;34.29;37.50;;
76100;Laerm;64828;49.956;8.636;2023-03-01T00:49:51;36.29;34.65;37.66;;
76100;Laerm;64828;49.956;8.636;2023-03-01T00:50:08;36.20;34.30;37.55;;
76100;Laerm;64828;49.956;8.636;2023-03-01T00:50:24;36.52;35.12;38.26;;
76100;Laerm;64828;49.956;8.636;2023-03-01T00:50:40;36.90;35.42;38.46;;
76100;Laerm;64828;49.956;8.636;2023-03-01T00:50:55;37.09;35.43;38.74;;
76100;Laerm;64828;49.956;8.636;2023-03-01T00:51:18;37.41;35.65;39.19;;
76100;Laerm;64828;49.956;8.636;2023-03-01T00:51:34;37.34;35.68;39.20;;
76100;Laerm;64828;49.956;8.636;2023-03-01T00:51:49;36.83;35.07;38.11;;
76100;Laerm;64828;49.956;8.636;2023-03-01T00:52:05;36.52;35.05;37.82;;
76100;Laerm;64828;49.956;8.636;2023-03-01T00:52:21;36.79;35.41;38.21;;
76100;Laerm;64828;49.956;8.636;2023-03-01T00:52:37;37.04;35.71;38.31;;
76100;Laerm;64828;49.956;8.636;2023-03-01T00:52:55;37.09;35.11;38.49;;
76100;Laerm;64828;49.956;8.636;2023-03-01T00:53:11;37.18;35.72;38.67;;
76100;Laerm;64828;49.956;8.636;2023-03-01T00:53:26;37.03;35.27;38.43;;
76100;Laerm;64828;49.956;8.636;2023-03-01T00:53:43;36.89;35.39;38.60;;
76100;Laerm;64828;49.956;8.636;2023-03-01T00:54:02;36.66;34.89;37.90;;
76100;Laerm;64828;49.956;8.636;2023-03-01T00:54:17;36.62;34.57;37.81;;
76100;Laerm;64828;49.956;8.636;2023-03-01T00:54:33;36.77;35.33;38.25;;
76100;Laerm;64828;49.956;8.636;2023-03-01T00:54:52;36.60;35.02;37.74;;
76100;Laerm;64828;49.956;8.636;2023-03-01T00:55:07;36.66;35.04;37.91;;
76100;Laerm;64828;49.956;8.636;2023-03-01T00:55:24;36.74;35.33;38.37;;
76100;Laerm;64828;49.956;8.636;2023-03-01T00:55:39;36.47;34.91;37.74;;
76100;Laerm;64828;49.956;8.636;2023-03-01T00:55:57;36.48;34.91;37.92;;
76100;Laerm;64828;49.956;8.636;2023-03-01T00:56:14;36.48;35.11;37.79;;
76100;Laerm;64828;49.956;8.636;2023-03-01T00:56:31;39.04;34.95;59.61;;
76100;Laerm;64828;49.956;8.636;2023-03-01T00:56:47;36.56;35.21;37.73;;
76100;Laerm;64828;49.956;8.636;2023-03-01T00:57:02;36.60;35.29;38.01;;
76100;Laerm;64828;49.956;8.636;2023-03-01T00:57:18;36.80;35.44;38.20;;
76100;Laerm;64828;49.956;8.636;2023-03-01T00:57:34;36.88;34.99;38.39;;
76100;Laerm;64828;49.956;8.636;2023-03-01T00:57:49;36.96;35.23;38.23;;
76100;Laerm;64828;49.956;8.636;2023-03-01T00:58:05;36.75;35.20;38.64;;
76100;Laerm;64828;49.956;8.636;2023-03-01T00:58:20;36.65;35.18;37.91;;
76100;Laerm;64828;49.956;8.636;2023-03-01T00:58:36;36.62;34.50;37.88;;
76100;Laerm;64828;49.956;8.636;2023-03-01T00:58:52;37.99;35.84;40.25;;
76100;Laerm;64828;49.956;8.636;2023-03-01T00:59:08;38.17;36.40;40.67;;
76100;Laerm;64828;49.956;8.636;2023-03-01T00:59:23;38.82;36.34;41.31;;
76100;Laerm;64828;49.956;8.636;2023-03-01T00:59:39;38.29;35.96;40.50;;
76100;Laerm;64828;49.956;8.636;2023-03-01T00:59:54;38.45;36.11;41.05;;
76100;Laerm;64828;49.956;8.636;2023-03-01T01:00:11;38.02;35.42;39.87;;
76100;Laerm;64828;49.956;8.636;2023-03-01T01:00:26;38.14;35.80;40.64;;
76100;Laerm;64828;49.956;8.636;2023-03-01T01:00:43;39.82;36.68;42.62;;
76100;Laerm;64828;49.956;8.636;2023-03-01T01:00:59;41.05;37.62;44.06;;
76100;Laerm;64828;49.956;8.636;2023-03-01T01:01:19;42.17;37.26;45.24;;
76100;Laerm;64828;49.956;8.636;2023-03-01T01:01:35;39.44;35.77;42.91;;
76100;Laerm;64828;49.956;8.636;2023-03-01T01:01:51;38.18;35.59;40.86;;
76100;Laerm;64828;49.956;8.636;2023-03-01T01:02:06;37.41;35.27;40.07;;
76100;Laerm;64828;49.956;8.636;2023-03-01T01:02:22;37.31;35.49;39.08;;
76100;Laerm;64828;49.956;8.636;2023-03-01T01:02:38;37.04;35.29;38.75;;
76100;Laerm;64828;49.956;8.636;2023-03-01T01:02:53;36.83;35.47;38.05;;
76100;Laerm;64828;49.956;8.636;2023-03-01T01:03:09;36.89;35.38;38.13;;
76100;Laerm;64828;49.956;8.636;2023-03-01T01:03:24;36.73;35.17;38.38;;
76100;Laerm;64828;49.956;8.636;2023-03-01T01:03:40;36.90;35.52;38.38;;
76100;Laerm;64828;49.956;8.636;2023-03-01T01:04:07;38.64;35.85;43.21;;
76100;Laerm;64828;49.956;8.636;2023-03-01T01:04:22;41.71;39.00;44.41;;
76100;Laerm;64828;49.956;8.636;2023-03-01T01:04:38;41.49;37.76;47.01;;
76100;Laerm;64828;49.956;8.636;2023-03-01T01:04:54;43.79;38.14;48.07;;
76100;Laerm;64828;49.956;8.636;2023-03-01T01:05:10;41.29;38.59;43.87;;
76100;Laerm;64828;49.956;8.636;2023-03-01T01:05:26;39.75;37.71;41.81;;
76100;Laerm;64828;49.956;8.636;2023-03-01T01:05:41;39.49;37.01;42.32;;
76100;Laerm;64828;49.956;8.636;2023-03-01T01:05:57;39.19;36.82;42.49;;
76100;Laerm;64828;49.956;8.636;2023-03-01T01:06:28;39.22;37.28;41.54;;
76100;Laerm;64828;49.956;8.636;2023-03-01T01:06:46;38.28;35.96;40.79;;
76100;Laerm;64828;49.956;8.636;2023-03-01T01:07:02;37.26;35.42;39.52;;
76100;Laerm;64828;49.956;8.636;2023-03-01T01:07:18;37.42;35.77;39.19;;
76100;Laerm;64828;49.956;8.636;2023-03-01T01:07:35;37.42;35.67;43.94;;
76100;Laerm;64828;49.956;8.636;2023-03-01T01:07:51;37.14;35.64;38.70;;
76100;Laerm;64828;49.956;8.636;2023-03-01T01:08:07;37.17;35.67;39.35;;
76100;Laerm;64828;49.956;8.636;2023-03-01T01:08:22;38.95;34.98;45.60;;
76100;Laerm;64828;49.956;8.636;2023-03-01T01:08:38;38.72;36.13;42.30;;
76100;Laerm;64828;49.956;8.636;2023-03-01T01:08:55;42.44;37.38;46.46;;
76100;Laerm;64828;49.956;8.636;2023-03-01T01:09:15;45.16;40.48;49.94;;
76100;Laerm;64828;49.956;8.636;2023-03-01T01:09:34;43.54;38.28;47.00;;
76100;Laerm;64828;49.956;8.636;2023-03-01T01:09:49;42.51;37.43;46.10;;
76100;Laerm;64828;49.956;8.636;2023-03-01T01:10:06;39.83;36.24;44.02;;
76100;Laerm;64828;49.956;8.636;2023-03-01T01:10:22;38.72;36.79;40.52;;
76100;Laerm;64828;49.956;8.636;2023-03-01T01:10:38;38.27;36.31;40.49;;
76100;Laerm;64828;49.956;8.636;2023-03-01T01:10:53;37.68;35.07;39.64;;
76100;Laerm;64828;49.956;8.636;2023-03-01T01:11:11;37.54;35.43;43.78;;
76100;Laerm;64828;49.956;8.636;2023-03-01T01:11:29;37.17;35.25;41.41;;
76100;Laerm;64828;49.956;8.636;2023-03-01T01:11:49;36.95;35.21;41.52;;
76100;Laerm;64828;49.956;8.636;2023-03-01T01:12:06;36.82;35.06;38.37;;
76100;Laerm;64828;49.956;8.636;2023-03-01T01:12:22;36.81;35.34;38.19;;
76100;Laerm;64828;49.956;8.636;2023-03-01T01:12:38;36.91;34.82;39.39;;
76100;Laerm;64828;49.956;8.636;2023-03-01T01:12:53;36.99;35.54;38.74;;
76100;Laerm;64828;49.956;8.636;2023-03-01T01:13:09;37.26;35.25;39.79;;
76100;Laerm;64828;49.956;8.636;2023-03-01T01:13:24;37.23;35.32;39.81;;
76100;Laerm;64828;49.956;8.636;2023-03-01T01:13:40;37.27;35.14;40.47;;
76100;Laerm;64828;49.956;8.636;2023-03-01T01:13:57;37.24;35.38;39.17;;
76100;Laerm;64828;49.956;8.636;2023-03-01T01:14:14;37.17;35.49;39.19;;
76100;Laerm;64828;49.956;8.636;2023-03-01T01:14:30;37.03;35.04;39.58;;
76100;Laerm;64828;49.956;8.636;2023-03-01T01:14:45;37.05;35.19;38.31;;
76100;Laerm;64828;49.956;8.636;2023-03-01T01:15:01;37.10;35.69;39.99;;
76100;Laerm;64828;49.956;8.636;2023-03-01T01:15:17;37.27;35.73;38.86;;
76100;Laerm;64828;49.956;8.636;2023-03-01T01:15:36;37.47;36.18;39.51;;
76100;Laerm;64828;49.956;8.636;2023-03-01T01:15:51;37.37;36.08;39.11;;
76100;Laerm;64828;49.956;8.636;2023-03-01T01:16:08;37.07;35.47;40.06;;
76100;Laerm;64828;49.956;8.636;2023-03-01T01:16:27;37.07;35.54;39.03;;
76100;Laerm;64828;49.956;8.636;2023-03-01T01:16:43;37.04;35.00;40.04;;
76100;Laerm;64828;49.956;8.636;2023-03-01T01:16:59;37.26;35.85;39.51;;
76100;Laerm;64828;49.956;8.636;2023-03-01T01:17:15;37.25;35.71;38.70;;
76100;Laerm;64828;49.956;8.636;2023-03-01T01:17:30;37.46;35.80;38.92;;
76100;Laerm;64828;49.956;8.636;2023-03-01T01:17:46;38.36;36.25;41.08;;
76100;Laerm;64828;49.956;8.636;2023-03-01T01:18:02;37.98;35.72;41.77;;
76100;Laerm;64828;49.956;8.636;2023-03-01T01:18:18;36.98;35.07;38.89;;
76100;Laerm;64828;49.956;8.636;2023-03-01T01:18:33;37.51;35.00;40.14;;
76100;Laerm;64828;49.956;8.636;2023-03-01T01:18:49;37.94;36.18;40.35;;
76100;Laerm;64828;49.956;8.636;2023-03-01T01:19:06;40.13;36.42;45.58;;
76100;Laerm;64828;49.956;8.636;2023-03-01T01:19:22;41.60;37.25;44.86;;
76100;Laerm;64828;49.956;8.636;2023-03-01T01:19:38;40.03;37.83;42.25;;
76100;Laerm;64828;49.956;8.636;2023-03-01T01:19:54;40.87;37.21;44.41;;
76100;Laerm;64828;49.956;8.636;2023-03-01T01:20:10;40.81;38.07;44.13;;
76100;Laerm;64828;49.956;8.636;2023-03-01T01:20:26;39.87;36.76;43.54;;
76100;Laerm;64828;49.956;8.636;2023-03-01T01:20:42;38.33;35.97;40.95;;
76100;Laerm;64828;49.956;8.636;2023-03-01T01:21:03;38.28;35.86;42.69;;
76100;Laerm;64828;49.956;8.636;2023-03-01T01:21:22;38.38;36.03;40.78;;
76100;Laerm;64828;49.956;8.636;2023-03-01T01:21:38;38.62;36.31;42.06;;
76100;Laerm;64828;49.956;8.636;2023-03-01T01:21:54;37.48;35.72;38.95;;
76100;Laerm;64828;49.956;8.636;2023-03-01T01:22:10;37.19;35.35;38.60;;
76100;Laerm;64828;49.956;8.636;2023-03-01T01:22:25;37.21;35.75;39.17;;
76100;Laerm;64828;49.956;8.636;2023-03-01T01:22:41;36.76;34.55;38.17;;
76100;Laerm;64828;49.956;8.636;2023-03-01T01:22:56;36.81;35.41;38.25;;
76100;Laerm;64828;49.956;8.636;2023-03-01T01:23:12;37.04;35.54;38.92;;
76100;Laerm;64828;49.956;8.636;2023-03-01T01:23:28;37.11;35.74;38.41;;
76100;Laerm;64828;49.956;8.636;2023-03-01T01:23:45;36.98;35.33;38.34;;
76100;Laerm;64828;49.956;8.636;2023-03-01T01:24:04;36.74;35.41;39.06;;
76100;Laerm;64828;49.956;8.636;2023-03-01T01:24:21;36.87;35.27;38.40;;
76100;Laerm;64828;49.956;8.636;2023-03-01T01:24:36;36.93;35.23;45.83;;
76100;Laerm;64828;49.956;8.636;2023-03-01T01:24:52;37.01;35.58;38.86;;
76100;Laerm;64828;49.956;8.636;2023-03-01T01:25:08;37.30;35.63;39.25;;
76100;Laerm;64828;49.956;8.636;2023-03-01T01:25:24;38.54;35.94;41.37;;
76100;Laerm;64828;49.956;8.636;2023-03-01T01:25:42;43.11;38.21;49.90;;
76100;Laerm;64828;49.956;8.636;2023-03-01T01:26:14;41.89;38.14;49.36;;
76100;Laerm;64828;49.956;8.636;2023-03-01T01:26:33;43.47;39.62;49.70;;
76100;Laerm;64828;49.956;8.636;2023-03-01T01:26:49;44.02;40.21;50.87;;
76100;Laerm;64828;49.956;8.636;2023-03-01T01:27:04;41.15;38.02;45.37;;
76100;Laerm;64828;49.956;8.636;2023-03-01T01:27:22;37.55;35.89;40.01;;
76100;Laerm;64828;49.956;8.636;2023-03-01T01:27:38;36.93;35.31;38.60;;
76100;Laerm;64828;49.956;8.636;2023-03-01T01:27:53;37.03;35.65;38.54;;
76100;Laerm;64828;49.956;8.636;2023-03-01T01:28:09;36.99;35.27;40.61;;
76100;Laerm;64828;49.956;8.636;2023-03-01T01:28:24;36.99;35.06;38.22;;
76100;Laerm;64828;49.956;8.636;2023-03-01T01:28:41;37.55;36.09;38.90;;
76100;Laerm;64828;49.956;8.636;2023-03-01T01:28:58;37.36;35.45;38.50;;
76100;Laerm;64828;49.956;8.636;2023-03-01T01:29:14;37.57;36.03;38.93;;
76100;Laerm;64828;49.956;8.636;2023-03-01T01:29:30;37.88;36.02;39.45;;
76100;Laerm;64828;49.956;8.636;2023-03-01T01:29:45;38.47;36.63;40.02;;
76100;Laerm;64828;49.956;8.636;2023-03-01T01:30:01;40.52;37.71;44.22;;
76100;Laerm;64828;49.956;8.636;2023-03-01T01:30:17;42.77;38.69;46.20;;
76100;Laerm;64828;49.956;8.636;2023-03-01T01:30:33;39.53;36.92;42.40;;
76100;Laerm;64828;49.956;8.636;2023-03-01T01:30:49;40.26;37.59;43.59;;
76100;Laerm;64828;49.956;8.636;2023-03-01T01:31:05;42.12;38.57;46.05;;
76100;Laerm;64828;49.956;8.636;2023-03-01T01:31:22;44.24;40.63;49.52;;
76100;Laerm;64828;49.956;8.636;2023-03-01T01:31:42;42.94;39.46;45.48;;
76100;Laerm;64828;49.956;8.636;2023-03-01T01:31:58;41.72;38.02;45.98;;
76100;Laerm;64828;49.956;8.636;2023-03-01T01:32:13;39.25;37.21;41.69;;
76100;Laerm;64828;49.956;8.636;2023-03-01T01:32:29;39.75;37.52;44.40;;
76100;Laerm;64828;49.956;8.636;2023-03-01T01:32:45;44.96;40.35;51.37;;
76100;Laerm;64828;49.956;8.636;2023-03-01T01:33:00;42.74;38.90;48.20;;